KTRL/TRL METAR and TAF weather

Enter ICAO airport designator
Station Type Date Time Source
KTRL METAR 2021/09/20 03:53 UTC NOAA

KTRL 200353Z AUTO 12005KT 10SM CLR 26/22 A2988 RMK AO2 SLP112 T02560217


Station Type Date Time Source
KTRL Decoded METAR 2021/09/20 03:53 UTC NOAA

TERRELL MUNICIPAL AIRPORT, TX, United States (KTRL) 32-43N 96-16W 144M
Sep 19, 2021 - 11:53 PM EDT / 2021.09.20 0353 UTC
Wind: from the ESE (120 degrees) at 6 MPH (5 KT):0
Visibility: 10 mile(s):0
Sky conditions: clear
Temperature: 78.1 F (25.6 C)
Dew Point: 71.1 F (21.7 C)
Relative Humidity: 79%
Pressure (altimeter): 29.88 in. Hg (1011 hPa)
ob: KTRL 200353Z AUTO 12005KT 10SM CLR 26/22 A2988 RMK AO2 SLP112 T02560217
cycle: 4

Station Type Date Time Source
KTRL TAF UTC NOAA

Error!

Example: see airport list